createdAt,value
2018-02-24T00:02:24.383Z,-1.49
2018-02-24T00:03:24.379Z,-1.40
2018-02-24T00:04:24.359Z,-1.45
2018-02-24T00:05:24.341Z,-1.51
2018-02-24T00:06:24.337Z,-1.45
2018-02-24T00:07:24.314Z,-1.45
2018-02-24T00:08:24.293Z,-1.41
2018-02-24T00:23:52.748Z,-1.55
2018-02-24T00:25:52.732Z,-1.52
2018-02-24T00:26:52.706Z,-1.54
2018-02-24T00:27:52.688Z,-1.52
2018-02-24T00:28:52.682Z,-1.58
2018-02-24T00:29:52.667Z,-1.49
2018-02-24T00:30:52.640Z,-1.54
2018-02-24T00:31:52.638Z,-1.49
2018-02-24T00:32:52.618Z,-1.54
2018-02-24T00:33:52.598Z,-1.59
2018-02-24T00:34:52.588Z,-1.54
2018-02-24T00:38:18.232Z,-1.49
2018-02-24T00:39:18.227Z,-1.61
2018-02-24T00:40:18.205Z,-1.61
2018-02-24T00:41:18.189Z,-1.48
2018-02-24T00:42:18.231Z,-1.67
2018-02-24T00:43:18.163Z,-1.54
2018-02-24T00:44:18.290Z,-1.59
2018-02-24T00:45:18.140Z,-1.58
2018-02-24T00:46:18.120Z,-1.52
2018-02-24T00:47:18.100Z,-1.51
2018-02-24T00:48:18.089Z,-1.61
2018-02-24T00:49:18.076Z,-1.58
2018-02-24T00:53:18.778Z,-1.59
2018-02-24T00:54:18.772Z,-1.61
2018-02-24T00:55:18.762Z,-1.56
2018-02-24T00:56:18.939Z,-1.61
2018-02-24T00:57:18.729Z,-1.58
2018-02-24T00:58:18.714Z,-1.70
2018-02-24T00:59:18.693Z,-1.62
2018-02-24T01:00:18.687Z,-1.64
2018-02-24T01:01:18.665Z,-1.73
2018-02-24T01:02:18.649Z,-1.72
2018-02-24T01:03:18.636Z,-1.73
2018-02-24T01:04:18.824Z,-1.74
2018-02-24T01:05:18.625Z,-1.70
2018-02-24T01:06:18.591Z,-1.70
2018-02-24T01:07:18.576Z,-1.73
2018-02-24T01:08:18.558Z,-1.69
2018-02-24T01:09:18.541Z,-1.69
2018-02-24T01:10:18.532Z,-1.66
2018-02-24T01:11:18.522Z,-1.70
2018-02-24T01:12:18.511Z,-1.72
2018-02-24T01:13:18.491Z,-1.67
2018-02-24T01:14:18.481Z,-1.70
2018-02-24T01:15:18.458Z,-1.76
2018-02-24T01:16:18.451Z,-1.67
2018-02-24T01:17:18.430Z,-1.74
2018-02-24T01:18:18.411Z,-1.72
2018-02-24T01:20:18.382Z,-1.72
2018-02-24T01:21:18.370Z,-1.72
2018-02-24T01:22:18.360Z,-1.82
2018-02-24T01:23:18.351Z,-1.74
2018-02-24T01:24:18.332Z,-1.70
2018-02-24T01:25:18.310Z,-1.74
2018-02-24T01:26:18.298Z,-1.70
2018-02-24T01:27:18.286Z,-1.70
2018-02-24T01:28:18.272Z,-1.72
2018-02-24T01:29:18.262Z,-1.72
2018-02-24T01:30:18.239Z,-1.76
2018-02-24T01:31:18.221Z,-1.74
2018-02-24T01:32:18.205Z,-1.73
2018-02-24T01:33:18.203Z,-1.80
2018-02-24T01:34:18.186Z,-1.82
2018-02-24T01:35:18.166Z,-1.85
2018-02-24T01:36:18.155Z,-1.88
2018-02-24T01:37:18.132Z,-1.77
2018-02-24T01:38:18.118Z,-1.82
2018-02-24T01:39:18.109Z,-1.80
2018-02-24T01:40:18.091Z,-1.84
2018-02-24T01:41:18.174Z,-1.82
2018-02-24T01:42:18.059Z,-1.82
2018-02-24T01:43:18.057Z,-1.87
2018-02-24T01:44:18.032Z,-1.84
2018-02-24T01:45:18.025Z,-1.84
2018-02-24T01:46:18.008Z,-1.87
2018-02-24T01:47:17.992Z,-1.79
2018-02-24T01:48:17.980Z,-1.80
2018-02-24T01:49:17.958Z,-1.84
2018-02-24T01:50:17.944Z,-1.85
2018-02-24T01:51:17.926Z,-1.94
2018-02-24T01:52:17.917Z,-1.90
2018-02-24T01:53:17.897Z,-1.87
2018-02-24T01:54:17.888Z,-1.88
2018-02-24T01:55:17.874Z,-1.91
2018-02-24T01:56:17.860Z,-1.90
2018-02-24T01:57:17.845Z,-1.92
2018-02-24T01:58:17.828Z,-1.90
2018-02-24T01:59:17.832Z,-1.94
2018-02-24T02:00:17.802Z,-1.84
2018-02-24T02:01:17.782Z,-1.82
2018-02-24T02:02:17.781Z,-1.82
2018-02-24T02:03:17.767Z,-1.76
2018-02-24T02:04:17.740Z,-1.91
2018-02-24T02:05:17.721Z,-1.88
2018-02-24T02:06:17.706Z,-1.87
2018-02-24T02:07:17.698Z,-1.84
2018-02-24T02:08:17.678Z,-1.80
2018-02-24T02:09:17.661Z,-1.80
2018-02-24T02:10:17.647Z,-1.87
2018-02-24T02:11:17.641Z,-1.80
2018-02-24T02:12:17.622Z,-1.85
2018-02-24T02:13:17.601Z,-1.84
2018-02-24T02:14:17.594Z,-1.85
2018-02-24T02:15:17.583Z,-1.90
2018-02-24T02:16:17.562Z,-1.88
2018-02-24T02:17:17.548Z,-1.92
2018-02-24T02:18:17.554Z,-1.91
2018-02-24T02:19:17.512Z,-1.88
2018-02-24T02:20:17.496Z,-1.80
2018-02-24T02:21:17.488Z,-1.97
2018-02-24T02:22:17.474Z,-1.92
2018-02-24T02:23:17.460Z,-1.92
2018-02-24T02:24:17.446Z,-1.91
2018-02-24T02:25:17.431Z,-1.88
2018-02-24T02:26:17.416Z,-1.82
2018-02-24T02:27:17.400Z,-1.84
2018-02-24T02:28:17.388Z,-1.85
2018-02-24T02:29:17.369Z,-1.85
2018-02-24T02:30:17.350Z,-1.85
2018-02-24T02:31:17.344Z,-1.91
2018-02-24T02:32:17.323Z,-1.94
2018-02-24T02:33:17.319Z,-1.92
2018-02-24T02:34:17.301Z,-1.92
2018-02-24T02:35:17.277Z,-1.95
2018-02-24T02:36:17.262Z,-1.97
2018-02-24T02:37:17.250Z,-1.91
2018-02-24T02:38:17.245Z,-1.97
2018-02-24T02:39:17.218Z,-1.94
2018-02-24T02:40:17.208Z,-1.97
2018-02-24T02:41:17.445Z,-1.91
2018-02-24T02:42:17.173Z,-1.94
2018-02-24T02:43:17.169Z,-1.95
2018-02-24T02:44:17.349Z,-1.88
2018-02-24T02:45:17.128Z,-1.94
2018-02-24T02:46:17.114Z,-1.91
2018-02-24T02:48:17.094Z,-2.03
2018-02-24T02:49:17.074Z,-2.00
2018-02-24T02:50:17.057Z,-1.95
2018-02-24T02:51:17.043Z,-1.95
2018-02-24T02:52:17.028Z,-2.02
2018-02-24T02:53:17.115Z,-2.03
2018-02-24T02:54:17.005Z,-2.05
2018-02-24T02:55:16.983Z,-2.02
2018-02-24T02:56:16.976Z,-1.98
2018-02-24T02:57:16.955Z,-2.02
2018-02-24T03:00:42.596Z,-2.08
2018-02-24T03:01:42.590Z,-2.03
2018-02-24T03:02:42.570Z,-2.09
2018-02-24T03:03:42.554Z,-2.09
2018-02-24T03:04:42.547Z,-2.05
2018-02-24T03:05:42.524Z,-2.02
2018-02-24T03:07:42.489Z,-2.06
2018-02-24T03:08:42.487Z,-2.12
2018-02-24T03:09:42.467Z,-2.09
2018-02-24T03:10:42.445Z,-2.12
2018-02-24T03:11:42.445Z,-2.09
2018-02-24T03:12:42.421Z,-2.20
2018-02-24T03:13:42.630Z,-2.13
2018-02-24T03:14:42.389Z,-2.16
2018-02-24T03:15:42.373Z,-2.09
2018-02-24T03:16:42.355Z,-2.13
2018-02-24T03:18:42.324Z,-2.12
2018-02-24T03:19:42.313Z,-2.09
2018-02-24T03:20:42.302Z,-2.03
2018-02-24T03:21:42.293Z,-2.16
2018-02-24T03:22:42.272Z,-2.13
2018-02-24T03:23:42.259Z,-2.15
2018-02-24T03:24:42.239Z,-2.15
2018-02-24T03:25:42.231Z,-2.21
2018-02-24T03:26:42.413Z,-2.21
2018-02-24T03:33:34.368Z,-2.10
2018-02-24T03:34:34.362Z,-2.26
2018-02-24T03:35:34.341Z,-2.16
2018-02-24T03:36:34.324Z,-2.24
2018-02-24T03:37:34.320Z,-2.34
2018-02-24T03:38:34.306Z,-2.30
2018-02-24T03:39:34.276Z,-2.29
2018-02-24T03:40:34.274Z,-2.29
2018-02-24T03:41:34.456Z,-2.39
2018-02-24T03:42:34.249Z,-2.37
2018-02-24T03:43:34.224Z,-2.32
2018-02-24T03:44:34.209Z,-2.40
2018-02-24T03:45:34.188Z,-2.37
2018-02-24T03:46:34.195Z,-2.39
2018-02-24T03:47:34.161Z,-2.39
2018-02-24T03:48:34.155Z,-2.40
2018-02-24T03:49:34.137Z,-2.42
2018-02-24T03:50:34.135Z,-2.43
2018-02-24T03:51:34.107Z,-2.43
2018-02-24T03:52:34.122Z,-2.46
2018-02-24T03:53:34.089Z,-2.43
2018-02-24T03:54:34.064Z,-2.40
2018-02-24T03:55:34.043Z,-2.42
2018-02-24T03:56:34.035Z,-2.42
2018-02-24T03:57:34.016Z,-2.43
2018-02-24T03:58:33.997Z,-2.39
2018-02-24T03:59:33.981Z,-2.43
2018-02-24T04:00:33.969Z,-2.46
2018-02-24T04:01:33.961Z,-2.43
2018-02-24T04:02:33.965Z,-2.46
2018-02-24T04:03:33.938Z,-2.37
2018-02-24T04:04:33.910Z,-2.43
2018-02-24T04:05:33.920Z,-2.45
2018-02-24T04:06:33.900Z,-2.43
2018-02-24T04:07:33.878Z,-2.42
2018-02-24T04:08:33.920Z,-2.43
2018-02-24T04:09:33.843Z,-2.37
2018-02-24T04:10:33.818Z,-2.37
2018-02-24T04:11:33.802Z,-2.40
2018-02-24T04:13:33.800Z,-2.37
2018-02-24T04:14:33.768Z,-2.35
2018-02-24T04:15:33.756Z,-2.27
2018-02-24T04:16:33.745Z,-2.37
2018-02-24T04:17:33.721Z,-2.37
2018-02-24T04:18:33.698Z,-2.40
2018-02-24T04:19:33.703Z,-2.39
2018-02-24T04:20:33.671Z,-2.34
2018-02-24T04:21:33.653Z,-2.42
2018-02-24T04:22:33.653Z,-2.39
2018-02-24T04:23:33.654Z,-2.35
2018-02-24T04:24:33.611Z,-2.35
2018-02-24T04:25:33.604Z,-2.45
2018-02-24T04:26:33.585Z,-2.40
2018-02-24T04:27:33.676Z,-2.40
2018-02-24T04:28:33.576Z,-2.43
2018-02-24T04:29:33.537Z,-2.43
2018-02-24T04:30:33.540Z,-2.40
2018-02-24T04:31:33.503Z,-2.43
2018-02-24T04:32:33.495Z,-2.40
2018-02-24T04:33:33.480Z,-2.43
2018-02-24T04:34:33.478Z,-2.35
2018-02-24T04:35:33.449Z,-2.39
2018-02-24T04:36:33.462Z,-2.45
2018-02-24T04:37:33.422Z,-2.42
2018-02-24T04:38:33.466Z,-2.48
2018-02-24T04:39:33.394Z,-2.39
2018-02-24T04:40:33.393Z,-2.43
2018-02-24T04:41:33.363Z,-2.43
2018-02-24T04:42:33.345Z,-2.42
2018-02-24T04:43:33.326Z,-2.52
2018-02-24T04:44:33.319Z,-2.53
2018-02-24T04:45:33.609Z,-2.39
2018-02-24T04:46:33.284Z,-2.52
2018-02-24T04:48:33.258Z,-2.50
2018-02-24T04:49:33.245Z,-2.49
2018-02-24T04:50:33.220Z,-2.46
2018-02-24T04:51:33.206Z,-2.53
2018-02-24T04:52:33.200Z,-2.43
2018-02-24T04:53:33.183Z,-2.46
2018-02-24T04:54:33.161Z,-2.50
2018-02-24T04:55:33.157Z,-2.43
2018-02-24T04:56:33.142Z,-2.48
2018-02-24T04:57:33.121Z,-2.43
2018-02-24T04:58:33.105Z,-2.48
2018-02-24T04:59:33.088Z,-2.43
2018-02-24T05:00:33.070Z,-2.55
2018-02-24T05:01:33.054Z,-2.45
2018-02-24T05:03:06.255Z,-2.42
2018-02-24T05:03:33.031Z,-2.45
2018-02-24T05:04:33.030Z,-2.55
2018-02-24T05:05:33.002Z,-2.42
2018-02-24T05:06:32.985Z,-2.52
2018-02-24T05:07:32.970Z,-2.46
2018-02-24T05:08:32.971Z,-2.46
2018-02-24T05:09:32.933Z,-2.43
2018-02-24T05:10:32.920Z,-2.45
2018-02-24T05:11:32.915Z,-2.50
2018-02-24T05:12:32.892Z,-2.43
2018-02-24T05:13:32.886Z,-2.46
2018-02-24T05:14:32.870Z,-2.52
2018-02-24T05:15:32.848Z,-2.42
2018-02-24T05:16:32.831Z,-2.52
2018-02-24T05:17:32.817Z,-2.43
2018-02-24T05:18:32.811Z,-2.46
2018-02-24T05:19:32.782Z,-2.58
2018-02-24T05:20:32.775Z,-2.55
2018-02-24T05:21:32.760Z,-2.52
2018-02-24T05:22:32.741Z,-2.50
2018-02-24T05:23:32.735Z,-2.48
2018-02-24T05:24:32.714Z,-2.52
2018-02-24T05:25:32.695Z,-2.56
2018-02-24T05:26:32.680Z,-2.55
2018-02-24T05:27:32.675Z,-2.55
2018-02-24T05:28:32.652Z,-2.49
2018-02-24T05:29:32.637Z,-2.56
2018-02-24T05:30:32.621Z,-2.61
2018-02-24T05:31:32.608Z,-2.56
2018-02-24T05:32:32.594Z,-2.64
2018-02-24T05:33:32.584Z,-2.64
2018-02-24T05:34:32.563Z,-2.66
2018-02-24T05:35:32.550Z,-2.63
2018-02-24T05:36:32.533Z,-2.61
2018-02-24T05:37:32.512Z,-2.63
2018-02-24T05:38:32.495Z,-2.64
2018-02-24T05:39:32.490Z,-2.68
2018-02-24T05:40:32.485Z,-2.64
2018-02-24T05:41:32.455Z,-2.61
2018-02-24T05:42:32.439Z,-2.66
2018-02-24T05:43:32.425Z,-2.67
2018-02-24T05:44:32.412Z,-2.63
2018-02-24T05:45:32.397Z,-2.68
2018-02-24T05:46:32.380Z,-2.64
2018-02-24T05:47:32.371Z,-2.63
2018-02-24T05:48:32.348Z,-2.63
2018-02-24T05:49:32.334Z,-2.64
2018-02-24T05:50:32.312Z,-2.68
2018-02-24T05:51:32.307Z,-2.73
2018-02-24T05:52:32.295Z,-2.67
2018-02-24T05:53:32.272Z,-2.64
2018-02-24T05:54:32.267Z,-2.66
2018-02-24T05:55:32.245Z,-2.60
2018-02-24T05:56:32.221Z,-2.68
2018-02-24T05:57:32.220Z,-2.70
2018-02-24T05:58:32.200Z,-2.68
2018-02-24T05:59:32.182Z,-2.63
2018-02-24T06:00:32.168Z,-2.63
2018-02-24T06:01:32.144Z,-2.64
2018-02-24T06:02:32.160Z,-2.61
2018-02-24T06:03:32.115Z,-2.63
2018-02-24T06:04:32.113Z,-2.63
2018-02-24T06:05:32.104Z,-2.68
2018-02-24T06:06:32.076Z,-2.61
2018-02-24T06:07:32.090Z,-2.66
2018-02-24T06:08:32.045Z,-2.64
2018-02-24T06:09:32.033Z,-2.60
2018-02-24T06:10:32.009Z,-2.63
2018-02-24T06:11:31.992Z,-2.64
2018-02-24T06:12:31.981Z,-2.68
2018-02-24T06:13:31.964Z,-2.67
2018-02-24T06:14:31.955Z,-2.61
2018-02-24T06:15:31.928Z,-2.67
2018-02-24T06:16:31.915Z,-2.73
2018-02-24T06:17:31.898Z,-2.67
2018-02-24T06:18:31.883Z,-2.66
2018-02-24T06:19:31.876Z,-2.78
2018-02-24T06:20:31.857Z,-2.78
2018-02-24T06:21:31.836Z,-2.74
2018-02-24T06:22:31.821Z,-2.82
2018-02-24T06:23:31.816Z,-2.81
2018-02-24T06:24:31.794Z,-2.82
2018-02-24T06:25:31.780Z,-2.77
2018-02-24T06:26:31.764Z,-2.84
2018-02-24T06:27:31.749Z,-2.79
2018-02-24T06:28:31.736Z,-2.82
2018-02-24T06:29:31.718Z,-2.77
2018-02-24T06:30:31.710Z,-2.81
2018-02-24T06:31:31.687Z,-2.85
2018-02-24T06:32:31.674Z,-2.82
2018-02-24T06:33:31.650Z,-2.78
2018-02-24T06:34:31.643Z,-2.78
2018-02-24T06:35:31.658Z,-2.78
2018-02-24T06:36:31.608Z,-2.82
2018-02-24T06:37:31.800Z,-2.74
2018-02-24T06:38:31.577Z,-2.81
2018-02-24T06:39:31.564Z,-2.74
2018-02-24T06:40:31.549Z,-2.73
2018-02-24T06:41:31.531Z,-2.68
2018-02-24T06:42:31.516Z,-2.70
2018-02-24T06:43:31.504Z,-2.70
2018-02-24T06:44:31.486Z,-2.71
2018-02-24T06:45:31.476Z,-2.67
2018-02-24T06:46:31.456Z,-2.66
2018-02-24T06:47:31.436Z,-2.64
2018-02-24T06:48:31.426Z,-2.70
2018-02-24T06:49:31.403Z,-2.63
2018-02-24T06:50:31.388Z,-2.64
2018-02-24T06:51:31.376Z,-2.66
2018-02-24T06:53:31.345Z,-2.61
2018-02-24T06:54:31.333Z,-2.64
2018-02-24T06:55:31.319Z,-2.66
2018-02-24T06:56:31.307Z,-2.63
2018-02-24T06:57:31.287Z,-2.64
2018-02-24T06:58:31.268Z,-2.63
2018-02-24T06:59:31.254Z,-2.55
2018-02-24T07:00:31.242Z,-2.52
2018-02-24T07:01:31.225Z,-2.55
2018-02-24T07:02:31.208Z,-2.48
2018-02-24T07:03:31.197Z,-2.52
2018-02-24T07:04:31.172Z,-2.55
2018-02-24T07:05:31.156Z,-2.52
2018-02-24T07:06:31.150Z,-2.52
2018-02-24T07:07:31.131Z,-2.50
2018-02-24T07:08:31.118Z,-2.50
2018-02-24T07:09:31.119Z,-2.55
2018-02-24T07:10:32.442Z,-2.49
2018-02-24T07:11:31.071Z,-2.52
2018-02-24T07:12:31.055Z,-2.48
2018-02-24T07:13:31.046Z,-2.40
2018-02-24T07:14:31.031Z,-2.61
2018-02-24T07:15:31.011Z,-2.48
2018-02-24T07:16:30.995Z,-2.53
2018-02-24T07:17:30.977Z,-2.48
2018-02-24T07:18:30.965Z,-2.58
2018-02-24T07:19:30.951Z,-2.42
2018-02-24T07:20:30.937Z,-2.49
2018-02-24T07:21:30.916Z,-2.48
2018-02-24T07:22:30.900Z,-2.49
2018-02-24T07:23:30.883Z,-2.43
2018-02-24T07:24:30.873Z,-2.45
2018-02-24T07:25:30.857Z,-2.40
2018-02-24T07:26:30.840Z,-2.39
2018-02-24T07:27:30.825Z,-2.37
2018-02-24T07:28:30.866Z,-2.39
2018-02-24T07:29:30.799Z,-2.37
2018-02-24T07:30:30.789Z,-2.37
2018-02-24T07:31:30.774Z,-2.27
2018-02-24T07:32:30.754Z,-2.34
2018-02-24T07:33:30.734Z,-2.27
2018-02-24T07:34:30.721Z,-2.34
2018-02-24T07:35:30.706Z,-2.26
2018-02-24T07:36:30.693Z,-2.26
2018-02-24T07:37:30.673Z,-2.12
2018-02-24T07:38:30.667Z,-2.15
2018-02-24T07:39:30.650Z,-2.16
2018-02-24T07:40:30.634Z,-2.13
2018-02-24T07:41:30.619Z,-2.15
2018-02-24T07:42:30.597Z,-2.10
2018-02-24T07:43:30.586Z,-2.05
2018-02-24T07:44:30.571Z,-2.10
2018-02-24T07:45:30.556Z,-1.97
2018-02-24T07:46:30.571Z,-1.94
2018-02-24T07:47:30.529Z,-1.98
2018-02-24T07:48:30.510Z,-1.91
2018-02-24T07:49:30.499Z,-1.91
2018-02-24T07:50:30.479Z,-1.80
2018-02-24T07:51:30.465Z,-1.84
2018-02-24T07:52:30.454Z,-1.87
2018-02-24T07:53:30.447Z,-1.73
2018-02-24T07:54:30.434Z,-1.76
2018-02-24T07:55:30.408Z,-1.72
2018-02-24T07:56:30.390Z,-1.67
2018-02-24T07:57:30.381Z,-1.72
2018-02-24T08:02:39.328Z,-1.62
2018-02-24T08:03:39.273Z,-1.67
2018-02-24T08:04:39.252Z,-1.61
2018-02-24T08:05:39.235Z,-1.61
2018-02-24T08:06:39.230Z,-1.51
2018-02-24T08:07:39.218Z,-1.54
2018-02-24T08:08:39.186Z,-1.51
2018-02-24T08:09:39.187Z,-1.54
2018-02-24T08:10:39.164Z,-1.49
2018-02-24T08:11:39.157Z,-1.58
2018-02-24T08:12:39.134Z,-1.58
2018-02-24T08:13:39.120Z,-1.61
2018-02-24T08:14:39.101Z,-1.55
2018-02-24T08:15:39.089Z,-1.54
2018-02-24T08:16:39.073Z,-1.48
2018-02-24T08:17:39.054Z,-1.40
2018-02-24T08:18:39.039Z,-1.33
2018-02-24T08:19:39.028Z,-1.33
2018-02-24T08:20:39.414Z,-1.23
2018-02-24T08:21:39.008Z,-1.17
2018-02-24T08:22:38.987Z,-1.17
2018-02-24T08:23:38.974Z,-1.02
2018-02-24T08:24:38.953Z,-1.02
2018-02-24T08:25:38.946Z,-1.02
2018-02-24T08:26:38.934Z,-1.12
2018-02-24T08:27:38.908Z,-1.05
2018-02-24T08:28:38.894Z,-1.05
2018-02-24T08:29:38.880Z,-0.97
2018-02-24T08:30:38.870Z,-0.83
2018-02-24T08:31:38.865Z,-0.86
2018-02-24T08:32:38.842Z,-0.89
2018-02-24T08:33:38.822Z,-0.79
2018-02-24T08:34:38.809Z,-0.86
2018-02-24T08:35:38.799Z,-0.78
2018-02-24T08:36:38.783Z,-0.86
2018-02-24T08:37:38.777Z,-0.79
2018-02-24T08:38:38.854Z,-0.82
2018-02-24T08:42:34.468Z,-0.47
2018-02-24T13:33:36.403Z,2.24
2018-02-24T13:42:19.271Z,3.65
2018-02-24T13:53:48.848Z,4.26
2018-02-24T13:54:48.648Z,4.06
